Seaside, CA

5:45 AM PDT on October 01, 2014 (GMT -0700)
Monte Vista | Change Station
CLOSE
Current Station
Personal Weather Station
Location: Monterey, CA
Elevation: 466 ft
Nearby Weather Stations

Elev 466 ft 36.58 °N, 121.91 °W | Updated 2 minutes ago

Clear
Clear
57.6 °F
Feels Like 57.6 °F
N
0.0
Wind Variable Wind from ENE
Gusts 0.0 mph

Today
High -- | Low -- °F
--% Chance of Precip.
Yesterday
High -- | Low -- °F
Precip. -- in
7:02 AM 6:50 PM
Waxing Crescent, 47% visible
Pressure 29.89 in
Visibility 10.0 miles
Clouds Clear
Dew Point 54 °F
Humidity 89%
Rainfall 0.00 in
Snow Depth 0 in , 5 in , 0 in
UV 0 out of 12
Pollen 3.60 out of 12
Air Quality Not available.
Flu Activity Not available.
METAR KMRY 011154Z AUTO 00000KT 10SM CLR 13/11 A2985 RMK AO2 SLP121 T01330106 10150 20122 55000

More Conditions Fewer Conditions

Pressure 29.89 in
Visibility 10.0 miles
Clouds Clear
Dew Point 54 °F
Humidity 89%
Rainfall 0.00 in
Snow Depth 0 in , 5 in , 0 in
UV 0 out of 12
Pollen 3.60 out of 12
Air Quality Not available.
Flu Activity Not available.
METAR KMRY 011154Z AUTO 00000KT 10SM CLR 13/11 A2985 RMK AO2 SLP121 T01330106 10150 20122 55000

More Conditions Fewer Conditions

10-Day Weather Forecast

Almanac

Astronomy

Oct. 01, 2014 Rise Set
Actual Time 7:02 AM PDT 6:50 PM PDT
Civil Twilight 6:36 AM PDT 7:16 PM PDT
Nautical Twilight 6:06 AM PDT 7:46 PM PDT
Astronomical Twilight 5:36 AM PDT 8:16 PM PDT
Moon 2:01 PM PDT No Moon Set
Length of Visible Light 12h 39m
Length of Day
11h 47m
Tomorrow will be 2m 19s shorter.
Waxing Crescent, 47% of the Moon is Illuminated
Today
Waxing Crescent
Oct 1
First Quarter
Oct 8
Full
Oct 15
Last Quarter
Oct 23
New

Today's Extremes

State Highs State Lows

Community

WunderPhotos

Upload Photos

1,757,917 photos uploaded!

Nearby

Snow Depth

Station Depth Elevation
Blue Lakes 0 in 8000 ft
CSS Lab 5 in 6900 ft
Hagan's Meadow 0 in 8000 ft
Ebbetts Pass 1 in 8700 ft
Poison Flat 0 in 7900 ft

Earthquake Activity

City Distance Mag. Time & Date
Shandon, California 101 miles 2.9 5:34 PM PDT
2014-09-30
East Foothills, California 59 miles 2.6 3:34 PM PDT
2014-09-30
South Dos Palos, California 55 miles 2.7 3:08 PM PDT
2014-09-30
South Dos Palos, California 55 miles 2.5 9:18 PM PDT
2014-09-29
Minimum magnitude displayed is 2.5.

Coastal Water Temperatures

Place Temperature
Monterey, CA 61.0 °F
Redwood City, CA 70.0 °F

Nearby Weather Stations